createdAt,value
2019-01-17T00:01:34.094Z,6.40
2019-01-17T00:04:18.949Z,6.50
2019-01-17T00:06:48.995Z,6.40
2019-01-17T00:09:19.019Z,6.40
2019-01-17T00:11:49.071Z,6.40
2019-01-17T00:14:34.356Z,6.40
2019-01-17T00:17:07.030Z,6.50
2019-01-17T00:19:53.277Z,6.50
2019-01-17T00:22:38.486Z,6.50
2019-01-17T00:25:21.695Z,6.60
2019-01-17T00:27:51.734Z,6.60
2019-01-17T00:30:21.755Z,6.60
2019-01-17T00:32:54.476Z,6.60
2019-01-17T00:35:24.518Z,6.70
2019-01-17T00:37:54.543Z,6.70
2019-01-17T00:40:30.149Z,6.70
2019-01-17T00:43:02.909Z,6.60
2019-01-17T00:45:38.747Z,6.60
2019-01-17T00:48:17.958Z,6.60
2019-01-17T00:50:53.697Z,6.70
2019-01-17T00:53:23.707Z,6.80
2019-01-17T00:55:59.355Z,6.90
2019-01-17T00:58:32.070Z,6.80
2019-01-17T01:01:04.458Z,6.70
2019-01-17T01:03:40.297Z,6.70
2019-01-17T01:06:10.321Z,6.60
2019-01-17T01:08:49.265Z,6.60
2019-01-17T01:11:28.480Z,6.50
2019-01-17T01:14:14.973Z,6.50
2019-01-17T01:16:54.090Z,6.50
2019-01-17T01:19:39.153Z,6.50
2019-01-17T01:22:24.015Z,6.50
2019-01-17T01:25:09.098Z,6.50
2019-01-17T01:27:41.815Z,6.40
2019-01-17T01:30:23.784Z,6.40
2019-01-17T01:33:10.110Z,6.40
2019-01-17T01:35:52.362Z,6.40
2019-01-17T01:38:31.371Z,6.40
2019-01-17T01:41:01.414Z,6.40
2019-01-17T01:43:37.288Z,6.40
2019-01-17T01:46:07.321Z,6.40
2019-01-17T01:48:37.337Z,6.40
2019-01-17T01:51:07.380Z,6.40
2019-01-17T01:53:35.784Z,6.30
2019-01-17T01:56:04.152Z,6.30
2019-01-17T01:58:32.547Z,6.30
2019-01-17T02:01:00.927Z,6.30
2019-01-17T02:03:29.332Z,6.30
2019-01-17T02:05:57.768Z,6.30
2019-01-17T02:08:26.147Z,6.30
2019-01-17T02:10:54.533Z,6.30
2019-01-17T02:13:22.900Z,6.30
2019-01-17T02:15:51.310Z,6.30
2019-01-17T02:18:19.690Z,6.30
2019-01-17T02:20:48.431Z,6.40
2019-01-17T02:23:16.783Z,6.40
2019-01-17T02:25:45.171Z,6.30
2019-01-17T02:28:13.575Z,6.30
2019-01-17T02:30:41.943Z,6.20
2019-01-17T02:33:10.412Z,6.10
2019-01-17T02:35:38.802Z,6.00
2019-01-17T02:38:07.229Z,6.00
2019-01-17T02:40:35.582Z,6.00
2019-01-17T02:43:03.954Z,5.90
2019-01-17T02:45:32.348Z,5.90
2019-01-17T02:48:00.723Z,5.90
2019-01-17T02:50:29.120Z,5.90
2019-01-17T02:52:57.491Z,5.80
2019-01-17T02:55:25.891Z,5.80
2019-01-17T02:57:54.270Z,5.80
2019-01-17T03:00:22.733Z,5.80
2019-01-17T03:02:51.108Z,5.80
2019-01-17T03:05:19.488Z,5.80
2019-01-17T03:07:47.886Z,5.80
2019-01-17T03:10:16.535Z,5.70
2019-01-17T03:12:44.934Z,5.70
2019-01-17T03:15:13.380Z,5.70
2019-01-17T03:17:41.759Z,5.70
2019-01-17T03:20:12.201Z,5.70
2019-01-17T03:22:40.578Z,5.70
2019-01-17T03:25:10.527Z,5.70
2019-01-17T03:27:38.906Z,5.70
2019-01-17T03:30:15.505Z,5.60
2019-01-17T03:32:43.872Z,5.60
2019-01-17T03:35:12.255Z,5.60
2019-01-17T03:37:40.644Z,5.60
2019-01-17T03:40:12.227Z,5.50
2019-01-17T03:42:40.620Z,5.50
2019-01-17T03:45:11.027Z,5.50
2019-01-17T03:47:39.403Z,5.50
2019-01-17T03:50:12.979Z,5.50
2019-01-17T03:52:41.361Z,5.50
2019-01-17T03:55:12.164Z,5.50
2019-01-17T03:57:40.535Z,5.50
2019-01-17T04:00:12.024Z,5.50
2019-01-17T04:02:40.423Z,5.50
2019-01-17T04:05:08.822Z,5.50
2019-01-17T04:07:37.208Z,5.50
2019-01-17T04:10:08.715Z,5.50
2019-01-17T04:12:37.103Z,5.40
2019-01-17T04:15:06.607Z,5.40
2019-01-17T04:17:35.035Z,5.40
2019-01-17T04:20:03.670Z,5.40
2019-01-17T04:22:32.075Z,5.40
2019-01-17T04:25:00.434Z,5.30
2019-01-17T04:27:28.839Z,5.30
2019-01-17T04:29:57.244Z,5.30
2019-01-17T04:32:25.613Z,5.30
2019-01-17T04:34:54.004Z,5.30
2019-01-17T04:37:22.385Z,5.40
2019-01-17T04:39:50.758Z,5.50
2019-01-17T04:42:19.145Z,5.50
2019-01-17T04:44:47.517Z,5.70
2019-01-17T04:47:15.926Z,5.70
2019-01-17T04:49:44.308Z,5.60
2019-01-17T04:52:12.704Z,5.60
2019-01-17T04:54:41.103Z,5.60
2019-01-17T04:57:09.468Z,5.60
2019-01-17T04:59:37.866Z,5.60
2019-01-17T05:02:06.252Z,5.60
2019-01-17T05:04:34.651Z,5.70
2019-01-17T05:07:03.026Z,5.60
2019-01-17T05:09:31.427Z,5.60
2019-01-17T05:11:59.813Z,5.60
2019-01-17T05:14:28.211Z,5.60
2019-01-17T05:16:56.613Z,5.70
2019-01-17T05:19:25.023Z,5.70
2019-01-17T05:21:53.394Z,5.70
2019-01-17T05:24:21.851Z,5.70
2019-01-17T05:26:50.257Z,5.80
2019-01-17T05:29:18.662Z,5.80
2019-01-17T05:31:47.033Z,5.70
2019-01-17T05:34:15.440Z,5.60
2019-01-17T05:36:43.801Z,5.60
2019-01-17T05:39:12.188Z,5.50
2019-01-17T05:41:40.600Z,5.50
2019-01-17T05:44:08.970Z,5.50
2019-01-17T05:46:37.379Z,5.50
2019-01-17T05:49:05.768Z,5.60
2019-01-17T05:51:34.182Z,5.60
2019-01-17T05:54:02.563Z,5.70
2019-01-17T05:56:30.984Z,5.70
2019-01-17T05:58:59.350Z,5.80
2019-01-17T06:01:27.751Z,5.80
2019-01-17T06:03:56.123Z,5.90
2019-01-17T06:06:24.527Z,6.00
2019-01-17T06:08:52.941Z,6.00
2019-01-17T06:11:21.349Z,6.10
2019-01-17T06:13:49.755Z,6.10
2019-01-17T06:16:18.135Z,6.20
2019-01-17T06:18:46.549Z,6.20
2019-01-17T06:21:14.931Z,6.30
2019-01-17T06:23:43.320Z,6.30
2019-01-17T06:26:11.714Z,6.30
2019-01-17T06:28:40.114Z,6.20
2019-01-17T06:31:08.465Z,6.00
2019-01-17T06:33:36.843Z,5.70
2019-01-17T06:36:05.253Z,5.60
2019-01-17T06:38:33.620Z,5.60
2019-01-17T06:41:01.981Z,5.50
2019-01-17T06:43:30.382Z,5.50
2019-01-17T06:45:58.830Z,5.50
2019-01-17T06:48:27.244Z,5.50
2019-01-17T06:50:55.643Z,5.40
2019-01-17T06:53:24.026Z,5.30
2019-01-17T06:55:52.425Z,5.30
2019-01-17T06:58:20.857Z,5.30
2019-01-17T07:00:49.227Z,5.30
2019-01-17T07:03:17.634Z,5.30
2019-01-17T07:05:46.004Z,5.30
2019-01-17T07:08:14.405Z,5.30
2019-01-17T07:10:42.776Z,5.30
2019-01-17T07:13:11.151Z,5.30
2019-01-17T07:15:39.544Z,5.20
2019-01-17T07:18:07.929Z,5.10
2019-01-17T07:20:36.328Z,5.10
2019-01-17T07:23:04.726Z,5.10
2019-01-17T07:25:33.082Z,5.10
2019-01-17T07:28:01.467Z,5.10
2019-01-17T07:30:29.872Z,5.10
2019-01-17T07:32:58.251Z,5.20
2019-01-17T07:35:26.654Z,5.20
2019-01-17T07:37:55.031Z,5.20
2019-01-17T07:40:23.413Z,5.30
2019-01-17T07:42:51.801Z,5.40
2019-01-17T07:45:23.167Z,5.40
2019-01-17T07:47:51.638Z,5.40
2019-01-17T07:50:20.001Z,5.40
2019-01-17T07:52:48.399Z,5.50
2019-01-17T07:55:16.779Z,5.50
2019-01-17T07:57:45.174Z,5.50
2019-01-17T08:00:18.682Z,5.50
2019-01-17T08:02:47.079Z,5.60
2019-01-17T08:05:15.472Z,5.60
2019-01-17T08:07:43.836Z,5.60
2019-01-17T08:10:14.561Z,5.60
2019-01-17T08:12:42.928Z,5.60
2019-01-17T08:15:12.477Z,5.60
2019-01-17T08:17:40.838Z,5.60
2019-01-17T08:20:15.274Z,5.60
2019-01-17T08:22:43.644Z,5.70
2019-01-17T08:25:12.519Z,5.70
2019-01-17T08:27:40.870Z,5.70
2019-01-17T08:30:17.654Z,5.80
2019-01-17T08:32:46.086Z,5.80
2019-01-17T08:35:16.072Z,5.90
2019-01-17T08:37:44.436Z,5.90
2019-01-17T08:40:20.469Z,5.90
2019-01-17T08:42:49.013Z,5.90
2019-01-17T08:45:17.378Z,5.90
2019-01-17T08:47:45.787Z,5.90
2019-01-17T08:50:15.214Z,6.00
2019-01-17T08:52:43.605Z,6.00
2019-01-17T08:55:11.968Z,6.10
2019-01-17T08:57:40.360Z,6.10
2019-01-17T09:00:15.025Z,5.70
2019-01-17T09:02:43.415Z,5.60
2019-01-17T09:05:11.801Z,5.60
2019-01-17T09:07:40.262Z,5.70
2019-01-17T09:10:15.060Z,5.80
2019-01-17T09:12:43.426Z,5.80
2019-01-17T09:15:14.658Z,5.90
2019-01-17T09:17:43.025Z,5.90
2019-01-17T09:20:13.559Z,5.90
2019-01-17T09:22:41.937Z,5.90
2019-01-17T09:25:12.668Z,6.00
2019-01-17T09:27:41.035Z,6.00
2019-01-17T09:30:12.582Z,6.00
2019-01-17T09:32:40.969Z,6.00
2019-01-17T09:35:11.198Z,5.90
2019-01-17T09:37:39.609Z,5.90
2019-01-17T09:40:11.128Z,5.80
2019-01-17T09:42:39.594Z,5.70
2019-01-17T09:45:08.338Z,5.60
2019-01-17T09:47:36.744Z,5.50
2019-01-17T09:50:11.531Z,5.50
2019-01-17T09:52:39.922Z,5.40
2019-01-17T09:55:08.291Z,5.40
2019-01-17T09:57:36.657Z,5.40
2019-01-17T10:00:10.891Z,5.50
2019-01-17T10:02:39.263Z,5.50
2019-01-17T10:05:07.723Z,5.50
2019-01-17T10:07:36.106Z,5.40
2019-01-17T10:10:07.754Z,5.40
2019-01-17T10:12:36.130Z,5.40
2019-01-17T10:15:10.195Z,5.40
2019-01-17T10:17:41.832Z,5.40
2019-01-17T10:20:25.647Z,5.50
2019-01-17T10:22:57.276Z,5.40
2019-01-17T10:25:32.043Z,5.40
2019-01-17T10:28:06.431Z,5.40
2019-01-17T10:30:53.360Z,5.30
2019-01-17T10:33:36.744Z,5.20
2019-01-17T10:36:14.697Z,5.00
2019-01-17T10:38:49.198Z,5.00
2019-01-17T10:41:37.474Z,5.00
2019-01-17T10:44:09.125Z,4.90
2019-01-17T10:47:02.040Z,4.90
2019-01-17T10:49:54.381Z,5.00
2019-01-17T10:52:34.867Z,5.30
2019-01-17T10:55:21.336Z,5.70
2019-01-17T10:58:12.702Z,5.90
2019-01-17T11:01:02.183Z,5.90
2019-01-17T11:03:33.839Z,5.90
2019-01-17T11:06:26.962Z,5.90
2019-01-17T11:09:07.175Z,5.90
2019-01-17T11:11:47.837Z,5.90
2019-01-17T11:14:38.911Z,6.00
2019-01-17T11:17:19.634Z,6.10
2019-01-17T11:19:54.266Z,6.00
2019-01-17T11:22:35.199Z,6.00
2019-01-17T11:25:09.619Z,6.10
2019-01-17T11:27:55.734Z,6.10
2019-01-17T11:30:43.786Z,6.10
2019-01-17T11:33:21.243Z,6.10
2019-01-17T11:36:14.151Z,6.10
2019-01-17T11:38:51.351Z,6.10
2019-01-17T11:41:23.007Z,6.10
2019-01-17T11:44:00.241Z,6.00
2019-01-17T11:46:51.286Z,5.90
2019-01-17T11:49:39.671Z,5.90
2019-01-17T11:52:23.260Z,5.90
2019-01-17T11:55:09.771Z,5.90
2019-01-17T11:57:47.337Z,5.90
2019-01-17T12:00:21.562Z,5.90
2019-01-17T12:02:59.206Z,5.90
2019-01-17T12:05:27.580Z,5.90
2019-01-17T12:07:55.992Z,5.90
2019-01-17T12:10:24.377Z,5.80
2019-01-17T12:12:52.818Z,5.70
2019-01-17T12:15:21.360Z,5.60
2019-01-17T12:17:49.730Z,5.50
2019-01-17T12:20:18.127Z,5.40
2019-01-17T12:22:46.495Z,5.40
2019-01-17T12:25:14.893Z,5.50
2019-01-17T12:27:43.271Z,5.70
2019-01-17T12:30:12.707Z,5.90
2019-01-17T12:32:41.090Z,6.00
2019-01-17T12:35:10.315Z,5.90
2019-01-17T12:37:38.704Z,5.90
2019-01-17T12:40:10.101Z,6.00
2019-01-17T12:42:38.505Z,6.10
2019-01-17T12:45:08.515Z,6.10
2019-01-17T12:47:36.910Z,6.10
2019-01-17T12:50:08.547Z,6.20
2019-01-17T12:52:36.933Z,6.30
2019-01-17T12:55:07.156Z,6.30
2019-01-17T12:57:35.539Z,6.10
2019-01-17T13:00:07.845Z,6.10
2019-01-17T13:02:36.311Z,6.30
2019-01-17T13:05:05.622Z,6.30
2019-01-17T13:07:34.076Z,6.30
2019-01-17T13:10:02.543Z,6.30
2019-01-17T13:12:30.907Z,6.30
2019-01-17T13:14:59.319Z,6.20
2019-01-17T13:17:27.640Z,6.20
2019-01-17T13:19:55.987Z,6.20
2019-01-17T13:22:24.385Z,6.10
2019-01-17T13:24:52.784Z,6.10
2019-01-17T13:27:21.182Z,6.00
2019-01-17T13:29:49.551Z,5.80
2019-01-17T13:32:17.952Z,5.90
2019-01-17T13:34:46.317Z,5.80
2019-01-17T13:37:14.731Z,5.50
2019-01-17T13:39:43.112Z,5.50
2019-01-17T13:42:11.497Z,5.60
2019-01-17T13:44:39.866Z,5.70
2019-01-17T13:47:08.243Z,5.80
2019-01-17T13:49:36.657Z,5.80
2019-01-17T13:52:05.044Z,5.20
2019-01-17T13:54:33.444Z,4.60
2019-01-17T13:57:07.512Z,4.40
2019-01-17T13:59:31.863Z,4.30
2019-01-17T14:02:00.268Z,4.20
2019-01-17T14:04:28.642Z,4.30
2019-01-17T14:06:57.030Z,4.30
2019-01-17T14:09:25.407Z,4.30
2019-01-17T14:11:53.806Z,4.30
2019-01-17T14:14:22.256Z,4.30
2019-01-17T14:16:50.646Z,4.30
2019-01-17T14:19:19.010Z,4.40
2019-01-17T14:21:47.436Z,4.60
2019-01-17T14:24:15.817Z,4.60
2019-01-17T14:26:44.183Z,4.40
2019-01-17T14:29:12.577Z,4.20
2019-01-17T14:31:40.941Z,3.90
2019-01-17T14:34:09.330Z,3.90
2019-01-17T14:36:37.694Z,3.80
2019-01-17T14:39:06.622Z,3.80
2019-01-17T14:41:34.950Z,3.80
2019-01-17T14:44:03.366Z,4.00
2019-01-17T14:46:31.736Z,4.10
2019-01-17T14:49:00.123Z,4.20
2019-01-17T14:51:28.510Z,4.20
2019-01-17T14:53:56.874Z,4.20
2019-01-17T14:56:25.281Z,4.20
2019-01-17T14:58:53.670Z,4.20
2019-01-17T15:01:22.111Z,4.20
2019-01-17T15:03:50.479Z,4.30
2019-01-17T15:06:18.877Z,4.40
2019-01-17T15:08:47.265Z,4.40
2019-01-17T15:11:15.659Z,4.50
2019-01-17T15:13:44.023Z,4.60
2019-01-17T15:16:12.411Z,4.50
2019-01-17T15:18:40.811Z,4.30
2019-01-17T15:21:09.211Z,4.30
2019-01-17T15:23:37.589Z,4.20
2019-01-17T15:26:06.230Z,4.20
2019-01-17T15:28:34.635Z,4.10
2019-01-17T15:31:03.282Z,4.00
2019-01-17T15:33:31.689Z,4.00
2019-01-17T15:36:00.075Z,3.80
2019-01-17T15:38:28.454Z,3.20
2019-01-17T15:40:56.852Z,2.90
2019-01-17T15:43:25.319Z,2.80
2019-01-17T15:45:53.706Z,2.90
2019-01-17T15:48:22.129Z,2.90
2019-01-17T15:50:50.613Z,2.90
2019-01-17T15:53:18.972Z,2.90
2019-01-17T15:55:47.377Z,2.90
2019-01-17T15:58:15.744Z,2.90
2019-01-17T16:00:44.143Z,2.90
2019-01-17T16:03:12.518Z,3.00
2019-01-17T16:05:40.905Z,2.90
2019-01-17T16:08:09.288Z,2.90
2019-01-17T16:10:37.675Z,2.90
2019-01-17T16:13:06.060Z,3.00
2019-01-17T16:15:34.432Z,3.00
2019-01-17T16:18:02.824Z,3.00
2019-01-17T16:20:31.202Z,3.00
2019-01-17T16:22:59.599Z,3.10
2019-01-17T16:25:27.980Z,3.10
2019-01-17T16:27:56.376Z,3.20
2019-01-17T16:30:27.999Z,3.30
2019-01-17T16:32:56.411Z,3.30
2019-01-17T16:35:24.786Z,3.30
2019-01-17T16:37:53.202Z,3.30
2019-01-17T16:40:21.594Z,3.40
2019-01-17T16:42:49.980Z,3.50
2019-01-17T16:45:21.253Z,3.70
2019-01-17T16:47:49.576Z,3.80
2019-01-17T16:50:19.832Z,3.90
2019-01-17T16:52:48.196Z,3.90
2019-01-17T16:55:16.585Z,3.80
2019-01-17T16:57:48.830Z,3.80
2019-01-17T17:00:18.248Z,3.80
2019-01-17T17:02:46.643Z,3.70
2019-01-17T17:05:15.248Z,3.80
2019-01-17T17:07:43.856Z,3.90
2019-01-17T17:10:14.435Z,4.10
2019-01-17T17:12:42.823Z,4.20
2019-01-17T17:15:12.213Z,4.30
2019-01-17T17:17:40.613Z,4.20
2019-01-17T17:20:17.186Z,3.80
2019-01-17T17:22:45.572Z,3.40
2019-01-17T17:25:13.937Z,3.20
2019-01-17T17:27:42.334Z,3.10
2019-01-17T17:30:13.812Z,3.10
2019-01-17T17:32:42.202Z,3.10
2019-01-17T17:35:10.584Z,3.20
2019-01-17T17:37:38.984Z,3.20
2019-01-17T17:40:13.559Z,3.30
2019-01-17T17:42:42.038Z,3.30
2019-01-17T17:45:11.680Z,3.30
2019-01-17T17:47:40.050Z,3.40
2019-01-17T17:50:17.824Z,3.40
2019-01-17T17:52:46.199Z,3.40
2019-01-17T17:55:18.858Z,3.50
2019-01-17T17:57:47.235Z,3.60
2019-01-17T18:00:20.175Z,3.70
2019-01-17T18:02:48.911Z,3.70
2019-01-17T18:05:17.307Z,3.70
2019-01-17T18:07:45.674Z,3.70
2019-01-17T18:10:16.028Z,3.80
2019-01-17T18:12:44.421Z,3.80
2019-01-17T18:15:16.865Z,3.80
2019-01-17T18:17:45.265Z,3.80
2019-01-17T18:20:14.769Z,3.90
2019-01-17T18:22:43.168Z,4.00
2019-01-17T18:25:11.976Z,4.20
2019-01-17T18:27:40.315Z,4.30
2019-01-17T18:30:20.457Z,4.40
2019-01-17T18:32:48.955Z,4.50
2019-01-17T18:35:17.317Z,4.40
2019-01-17T18:37:45.711Z,4.20
2019-01-17T18:40:21.666Z,4.20
2019-01-17T18:42:50.068Z,4.20
2019-01-17T18:45:20.882Z,4.30
2019-01-17T18:47:49.308Z,4.30
2019-01-17T18:50:19.855Z,4.30
2019-01-17T18:52:48.247Z,4.30
2019-01-17T18:55:17.501Z,4.20
2019-01-17T18:57:46.013Z,4.20
2019-01-17T19:00:21.591Z,4.20
2019-01-17T19:02:50.059Z,4.10
2019-01-17T19:05:18.447Z,4.20
2019-01-17T19:07:46.824Z,4.10
2019-01-17T19:10:16.547Z,4.20
2019-01-17T19:12:44.939Z,4.10
2019-01-17T19:15:18.766Z,4.10
2019-01-17T19:17:47.179Z,4.10
2019-01-17T19:20:17.488Z,4.10
2019-01-17T19:22:45.853Z,4.10
2019-01-17T19:25:14.317Z,4.10
2019-01-17T19:27:42.696Z,4.10
2019-01-17T19:30:19.919Z,4.30
2019-01-17T19:32:48.306Z,4.50
2019-01-17T19:35:16.759Z,4.40
2019-01-17T19:37:45.126Z,4.40
2019-01-17T19:40:16.033Z,4.40
2019-01-17T19:42:44.407Z,4.50
2019-01-17T19:45:14.414Z,4.50
2019-01-17T19:47:42.827Z,4.60
2019-01-17T19:50:23.311Z,4.70
2019-01-17T19:52:51.679Z,4.70
2019-01-17T19:55:20.047Z,4.70
2019-01-17T19:57:48.448Z,4.50
2019-01-17T20:00:18.591Z,4.30
2019-01-17T20:02:46.962Z,4.10
2019-01-17T20:05:24.490Z,3.90
2019-01-17T20:07:52.866Z,3.80
2019-01-17T20:10:23.703Z,3.80
2019-01-17T20:12:52.166Z,3.80
2019-01-17T20:15:21.377Z,3.80
2019-01-17T20:17:49.872Z,3.90
2019-01-17T20:20:18.675Z,4.00
2019-01-17T20:22:47.119Z,4.10
2019-01-17T20:25:15.536Z,4.30
2019-01-17T20:27:43.946Z,4.40
2019-01-17T20:30:24.182Z,4.40
2019-01-17T20:32:52.750Z,4.40
2019-01-17T20:35:21.126Z,4.30
2019-01-17T20:37:49.525Z,4.20
2019-01-17T20:40:20.591Z,4.20
2019-01-17T20:42:48.983Z,4.20
2019-01-17T20:45:17.488Z,4.20
2019-01-17T20:47:45.858Z,4.10
2019-01-17T20:50:22.847Z,4.00
2019-01-17T20:52:51.178Z,4.10
2019-01-17T20:55:19.578Z,4.10
2019-01-17T20:57:48.388Z,4.00
2019-01-17T21:00:23.171Z,4.00
2019-01-17T21:02:51.554Z,4.00
2019-01-17T21:05:20.182Z,4.00
2019-01-17T21:07:48.544Z,4.10
2019-01-17T21:10:17.686Z,4.00
2019-01-17T21:12:46.090Z,4.10
2019-01-17T21:15:14.859Z,4.00
2019-01-17T21:17:43.225Z,4.10
2019-01-17T21:20:12.658Z,4.10
2019-01-17T21:22:41.027Z,4.20
2019-01-17T21:25:20.308Z,4.20
2019-01-17T21:27:48.669Z,4.10
2019-01-17T21:30:24.181Z,4.20
2019-01-17T21:32:52.570Z,4.10
2019-01-17T21:35:20.962Z,4.10
2019-01-17T21:37:49.334Z,4.20
2019-01-17T21:40:19.758Z,4.20
2019-01-17T21:42:48.155Z,4.40
2019-01-17T21:45:18.426Z,4.60
2019-01-17T21:47:46.838Z,4.60
2019-01-17T21:50:18.447Z,4.40
2019-01-17T21:52:46.822Z,4.20
2019-01-17T21:55:15.202Z,4.00
2019-01-17T21:57:43.603Z,4.00
2019-01-17T22:00:21.333Z,3.90
2019-01-17T22:02:49.725Z,3.80
2019-01-17T22:05:18.157Z,3.70
2019-01-17T22:07:46.550Z,3.70
2019-01-17T22:10:16.088Z,3.70
2019-01-17T22:12:44.453Z,3.60
2019-01-17T22:15:21.333Z,3.50
2019-01-17T22:17:49.671Z,3.40
2019-01-17T22:20:18.109Z,3.30
2019-01-17T22:22:46.513Z,3.30
2019-01-17T22:25:16.928Z,3.40
2019-01-17T22:27:45.579Z,3.40
2019-01-17T22:30:17.155Z,3.50
2019-01-17T22:32:45.562Z,3.60
2019-01-17T22:35:13.948Z,3.70
2019-01-17T22:37:42.337Z,3.70
2019-01-17T22:40:13.319Z,3.80
2019-01-17T22:42:41.706Z,3.70
2019-01-17T22:45:18.179Z,3.70
2019-01-17T22:47:46.548Z,3.70
2019-01-17T22:50:17.160Z,3.70
2019-01-17T22:52:45.595Z,3.60
2019-01-17T22:55:13.987Z,3.70
2019-01-17T22:57:42.353Z,3.70
2019-01-17T23:00:16.761Z,3.70
2019-01-17T23:02:45.132Z,3.60
2019-01-17T23:05:13.509Z,3.60
2019-01-17T23:07:41.896Z,3.60
2019-01-17T23:10:10.262Z,3.50
2019-01-17T23:12:38.832Z,3.50
2019-01-17T23:15:08.562Z,3.50
2019-01-17T23:17:36.949Z,3.50
2019-01-17T23:20:10.011Z,3.50
2019-01-17T23:22:39.315Z,3.50
2019-01-17T23:25:08.279Z,3.50
2019-01-17T23:27:36.645Z,3.50
2019-01-17T23:30:13.275Z,3.50
2019-01-17T23:32:41.653Z,3.50
2019-01-17T23:35:10.056Z,3.50
2019-01-17T23:37:38.409Z,3.50
2019-01-17T23:40:09.101Z,3.40
2019-01-17T23:42:37.478Z,3.40
2019-01-17T23:45:08.021Z,3.40
2019-01-17T23:47:36.405Z,3.50
2019-01-17T23:50:12.126Z,3.50
2019-01-17T23:52:40.509Z,3.40
2019-01-17T23:55:09.253Z,3.40
2019-01-17T23:57:37.653Z,3.40
